Lynxville, Wisconsin
Current Conditions -  °F | °C
As of 7:35 AM on Friday 24 Oct 2014 (Local Time) from KPDC Reporting Station
Haze Haze  
Wind Chill: 51°   Ceiling: 200
Heat Index: 51°   Visibility: 0.75mi
Dew Point: 50°   Wind: 3mph
Humidity: 96%   Direction: 100°E
Pressure: 30.02"   Gusts: NA
Location:  43.25°N, 91.06°W
Report Text: KPDC 241235Z AUTO 10003KT 3/4SM BR OVC002 11/10 A3002 RMK AO2 T01070101
Loading
Personal Weather Stations






























Interactive Weather Map
Tropical Storm Tracking
New forecast layout! Learn more

10-Day Weather Forecast

Advertisements
Track Severe Weather on mobile